Time;durP1;ratioP1;P1;durP2;ratioP2;P2;SDS_P1;SDS_P2;PMS_P1;PMS_P2;Temp;Humidity;BMP_temperature;BMP_pressure;BME280_temperature;BME280_humidity;BME280_pressure;Samples;Min_cycle;Max_cycle;Signal;HPM_P1;HPM_P2
2023/09/06 00:01:39;;;;;;;2.88;1.63;;;;;;;18.84;100.00;101782.81;6350343;28;20040;-76
2023/09/06 00:04:41;;;;;;;5.53;1.30;;;;;;;18.84;100.00;101780.16;6350433;28;20138;-76
2023/09/06 00:07:44;;;;;;;1.50;1.00;;;;;;;18.82;100.00;101777.63;6350044;28;20059;-76
2023/09/06 00:10:47;;;;;;;1.75;1.13;;;;;;;18.77;100.00;101787.75;6350264;28;20444;-77
2023/09/06 00:13:49;;;;;;;2.35;1.20;;;;;;;18.70;100.00;101786.47;6349954;28;20520;-78
2023/09/06 00:16:51;;;;;;;3.72;1.50;;;;;;;18.72;100.00;101789.91;6327418;28;20067;-74
2023/09/06 00:19:52;;;;;;;2.65;1.30;;;;;;;18.66;100.00;101779.63;6313578;28;20044;-74
2023/09/06 00:22:55;;;;;;;1.05;0.95;;;;;;;18.63;100.00;101778.03;6299907;28;20059;-74
2023/09/06 00:25:57;;;;;;;3.17;1.10;;;;;;;18.61;100.00;101781.75;6299726;28;20053;-73
2023/09/06 00:28:59;;;;;;;4.15;1.60;;;;;;;18.56;100.00;101779.44;6299933;28;20052;-73
2023/09/06 00:32:01;;;;;;;2.30;1.20;;;;;;;18.50;100.00;101787.84;6299562;28;20052;-73
2023/09/06 00:35:02;;;;;;;2.58;1.08;;;;;;;18.55;100.00;101780.41;6302850;28;20338;-73
2023/09/06 00:38:06;;;;;;;3.47;1.38;;;;;;;18.51;100.00;101781.56;6309948;28;20051;-73
2023/09/06 00:41:07;;;;;;;1.88;1.13;;;;;;;18.40;100.00;101785.00;6343287;28;20142;-73
2023/09/06 00:44:10;;;;;;;1.85;1.40;;;;;;;18.42;100.00;101791.03;6313317;28;20079;-73
2023/09/06 00:47:12;;;;;;;3.20;1.23;;;;;;;18.37;100.00;101793.19;6342611;28;20040;-73
2023/09/06 00:50:14;;;;;;;2.30;1.10;;;;;;;18.37;100.00;101795.84;6343501;28;20371;-73
2023/09/06 00:53:16;;;;;;;1.88;1.10;;;;;;;18.32;100.00;101797.13;6340074;28;20181;-73
2023/09/06 00:56:18;;;;;;;1.98;1.27;;;;;;;18.29;100.00;101803.50;6355120;28;20066;-73
2023/09/06 00:59:23;;;;;;;2.50;1.17;;;;;;;18.25;100.00;101796.69;6351562;28;20098;-73
2023/09/06 01:02:24;;;;;;;2.33;1.23;;;;;;;18.28;100.00;101790.31;6345807;28;20047;-75
2023/09/06 01:05:32;;;;;;;2.35;1.20;;;;;;;18.28;100.00;101799.13;6354192;28;20054;-74
2023/09/06 01:08:38;;;;;;;1.27;1.10;;;;;;;18.18;100.00;101798.06;6354306;28;20052;-74
2023/09/06 01:11:40;;;;;;;1.88;1.33;;;;;;;18.14;100.00;101791.25;6350431;28;20478;-74
2023/09/06 01:14:43;;;;;;;1.98;1.20;;;;;;;18.18;100.00;101800.72;6355328;22;20127;-74
2023/09/06 01:17:46;;;;;;;5.38;1.52;;;;;;;18.12;100.00;101798.47;6328219;28;20051;-72
2023/09/06 01:20:52;;;;;;;2.13;1.27;;;;;;;18.08;100.00;101800.53;6328691;28;20451;-74
2023/09/06 01:23:57;;;;;;;3.60;1.80;;;;;;;18.08;100.00;101807.66;6328447;28;20348;-74
2023/09/06 01:26:58;;;;;;;1.80;1.40;;;;;;;18.00;100.00;101801.03;6328452;28;20458;-74
2023/09/06 01:30:00;;;;;;;4.15;1.30;;;;;;;17.98;100.00;101802.06;6328331;28;20069;-74
2023/09/06 01:33:02;;;;;;;1.60;1.05;;;;;;;17.89;100.00;101802.69;6328548;28;20048;-74
2023/09/06 01:36:04;;;;;;;6.55;2.33;;;;;;;17.88;100.00;101796.53;6344748;28;20044;-74
2023/09/06 01:39:09;;;;;;;1.83;1.20;;;;;;;17.86;100.00;101798.44;6353480;28;20051;-74
2023/09/06 01:42:10;;;;;;;3.63;1.73;;;;;;;17.83;100.00;101798.66;6353426;28;20450;-73
2023/09/06 01:45:14;;;;;;;1.75;1.38;;;;;;;17.81;100.00;101808.56;6351683;28;20351;-73
2023/09/06 01:48:16;;;;;;;4.50;1.42;;;;;;;17.78;100.00;101797.25;6353486;28;20052;-73
2023/09/06 01:51:17;;;;;;;1.95;1.13;;;;;;;17.76;100.00;101802.69;6353091;28;20052;-73
2023/09/06 01:54:20;;;;;;;2.40;1.60;;;;;;;17.75;100.00;101795.63;6333530;28;20055;-73
2023/09/06 01:57:21;;;;;;;1.52;1.23;;;;;;;17.82;100.00;101806.75;6352802;28;20072;-73
2023/09/06 02:00:27;;;;;;;1.60;1.27;;;;;;;17.76;100.00;101800.03;6353054;28;20062;-74
2023/09/06 02:03:28;;;;;;;2.83;1.60;;;;;;;17.72;100.00;101807.31;6352989;28;20124;-73
2023/09/06 02:06:30;;;;;;;2.38;1.38;;;;;;;17.65;100.00;101798.03;6352693;28;20054;-73
2023/09/06 02:09:32;;;;;;;2.80;1.50;;;;;;;17.61;100.00;101801.84;6352727;28;20469;-74
2023/09/06 02:12:34;;;;;;;2.38;1.40;;;;;;;17.64;100.00;101808.78;6352310;28;20043;-73
2023/09/06 02:15:35;;;;;;;1.63;1.35;;;;;;;17.62;100.00;101811.53;6352053;28;20131;-73
2023/09/06 02:18:37;;;;;;;4.82;1.60;;;;;;;17.58;100.00;101810.03;6352349;28;20088;-73
2023/09/06 02:21:39;;;;;;;2.83;1.77;;;;;;;17.56;100.00;101809.28;6352473;28;20043;-74
2023/09/06 02:24:42;;;;;;;1.92;1.38;;;;;;;17.56;100.00;101811.09;6351988;28;20044;-73
2023/09/06 02:27:43;;;;;;;2.13;1.50;;;;;;;17.53;100.00;101809.47;6352082;28;20051;-73
2023/09/06 02:30:45;;;;;;;2.50;1.40;;;;;;;17.47;100.00;101813.38;6352119;28;20443;-74
2023/09/06 02:33:46;;;;;;;3.03;1.50;;;;;;;17.45;100.00;101810.00;6352085;28;20450;-74
2023/09/06 02:36:47;;;;;;;1.83;1.10;;;;;;;17.48;100.00;101815.09;6351736;28;20052;-74
2023/09/06 02:39:52;;;;;;;5.40;1.38;;;;;;;17.44;100.00;101815.38;6341143;28;20060;-73
2023/09/06 02:42:54;;;;;;;2.45;1.55;;;;;;;17.39;100.00;101817.50;6339661;28;20037;-73
2023/09/06 02:45:55;;;;;;;2.72;1.33;;;;;;;17.36;100.00;101823.03;6350638;28;20048;-73
2023/09/06 02:48:58;;;;;;;3.38;1.42;;;;;;;17.27;100.00;101824.47;6342090;28;20432;-73
2023/09/06 02:51:59;;;;;;;2.78;1.40;;;;;;;17.30;100.00;101826.91;6325545;28;20047;-71
2023/09/06 02:55:10;;;;;;;4.07;1.75;;;;;;;17.26;100.00;101830.75;6326065;28;20352;-74
2023/09/06 02:58:12;;;;;;;2.78;1.15;;;;;;;17.24;100.00;101833.47;6335390;28;20044;-73
2023/09/06 03:01:19;;;;;;;2.35;1.70;;;;;;;17.29;100.00;101835.84;6338614;28;20048;-74
2023/09/06 03:04:23;;;;;;;3.10;1.38;;;;;;;17.23;100.00;101828.25;6342937;28;20043;-74
2023/09/06 03:07:24;;;;;;;2.33;1.40;;;;;;;17.18;100.00;101830.38;6351095;28;20055;-73
2023/09/06 03:10:27;;;;;;;1.23;1.00;;;;;;;17.10;100.00;101828.19;6344970;28;20134;-73
2023/09/06 03:13:29;;;;;;;2.15;1.30;;;;;;;17.12;100.00;101834.28;6334427;28;20132;-73
2023/09/06 03:16:38;;;;;;;2.33;1.52;;;;;;;17.07;100.00;101823.06;6342007;28;20043;-73
2023/09/06 03:19:40;;;;;;;1.10;0.95;;;;;;;17.05;100.00;101830.28;6351129;28;20047;-73
2023/09/06 03:22:42;;;;;;;2.65;1.20;;;;;;;17.09;100.00;101837.13;6351269;28;20451;-73
2023/09/06 03:25:45;;;;;;;3.63;1.33;;;;;;;16.97;100.00;101825.44;6350498;28;20051;-73
2023/09/06 03:28:47;;;;;;;2.10;1.23;;;;;;;16.97;100.00;101836.06;6351064;28;20047;-73
2023/09/06 03:31:48;;;;;;;1.77;1.48;;;;;;;16.94;100.00;101822.13;6350424;28;20157;-73
2023/09/06 03:34:51;;;;;;;1.33;1.08;;;;;;;16.92;100.00;101839.97;6317750;28;20435;-73
2023/09/06 03:37:52;;;;;;;1.83;1.30;;;;;;;16.91;100.00;101835.63;6321161;28;20052;-73
2023/09/06 03:40:55;;;;;;;3.55;1.42;;;;;;;16.88;100.00;101839.31;6311867;28;20364;-73
2023/09/06 03:43:58;;;;;;;2.50;1.30;;;;;;;16.84;100.00;101834.28;6312012;28;20047;-73
2023/09/06 03:46:59;;;;;;;4.45;1.95;;;;;;;16.85;100.00;101847.47;6312346;28;20044;-73
2023/09/06 03:50:01;;;;;;;1.95;1.35;;;;;;;16.86;100.00;101837.72;6311609;28;20044;-73
2023/09/06 03:53:04;;;;;;;2.00;1.10;;;;;;;16.77;100.00;101843.59;6312930;28;20037;-73
2023/09/06 03:56:08;;;;;;;8.25;1.33;;;;;;;16.82;100.00;101841.50;6310622;28;20352;-73
2023/09/06 03:59:09;;;;;;;3.10;1.30;;;;;;;16.82;100.00;101836.19;6311256;28;20052;-71
2023/09/06 04:02:13;;;;;;;2.58;1.70;;;;;;;16.76;100.00;101839.22;6312730;28;20340;-73
2023/09/06 04:05:15;;;;;;;2.47;1.58;;;;;;;16.69;100.00;101841.38;6311340;28;20207;-72
2023/09/06 04:08:17;;;;;;;3.90;1.60;;;;;;;16.68;100.00;101837.88;6315545;28;20048;-73
2023/09/06 04:11:20;;;;;;;2.70;1.60;;;;;;;16.69;100.00;101836.06;6320998;28;20455;-73
2023/09/06 04:14:22;;;;;;;2.80;1.60;;;;;;;16.70;100.00;101843.06;6317432;28;20329;-71
2023/09/06 04:17:25;;;;;;;2.90;1.38;;;;;;;16.65;100.00;101847.81;6315747;28;20056;-71
2023/09/06 04:20:30;;;;;;;2.17;1.33;;;;;;;16.65;100.00;101845.16;6318101;28;20048;-71
2023/09/06 04:23:32;;;;;;;2.55;1.40;;;;;;;16.62;100.00;101848.88;6316148;28;20051;-73
2023/09/06 04:26:35;;;;;;;3.38;1.45;;;;;;;16.56;100.00;101845.72;6316617;28;20359;-73
2023/09/06 04:29:36;;;;;;;2.72;1.20;;;;;;;16.53;100.00;101846.75;6322284;28;20347;-73
2023/09/06 04:32:38;;;;;;;2.72;1.65;;;;;;;16.60;100.00;101839.28;6329609;28;20055;-73
2023/09/06 04:35:42;;;;;;;2.58;1.55;;;;;;;16.61;100.00;101835.66;6329468;28;20052;-72
2023/09/06 04:38:46;;;;;;;2.40;1.38;;;;;;;16.47;100.00;101841.81;6329880;28;20185;-73
2023/09/06 04:41:49;;;;;;;2.70;1.90;;;;;;;16.52;100.00;101842.38;6325111;28;20136;-72
2023/09/06 04:44:50;;;;;;;3.38;1.83;;;;;;;16.52;100.00;101833.59;6319359;28;20048;-71
2023/09/06 04:47:52;;;;;;;2.38;1.80;;;;;;;16.42;100.00;101839.44;6316042;28;20045;-71
2023/09/06 04:50:56;;;;;;;3.13;1.50;;;;;;;16.43;100.00;101838.50;6317695;28;20049;-73
2023/09/06 04:53:57;;;;;;;2.55;1.65;;;;;;;16.46;100.00;101842.78;6318192;28;20385;-72
2023/09/06 04:57:00;;;;;;;4.78;1.83;;;;;;;16.43;100.00;101846.44;6316745;28;20040;-72
2023/09/06 05:00:03;;;;;;;2.88;1.90;;;;;;;16.48;100.00;101852.34;6315197;28;20044;-72
2023/09/06 05:03:08;;;;;;;2.42;1.77;;;;;;;16.51;100.00;101853.09;6320322;28;20044;-73
2023/09/06 05:06:09;;;;;;;3.75;1.88;;;;;;;16.52;100.00;101863.63;6316904;28;20040;-73
2023/09/06 05:09:13;;;;;;;4.15;1.95;;;;;;;16.52;100.00;101853.00;6316181;28;20059;-72
2023/09/06 05:12:20;;;;;;;3.95;2.08;;;;;;;16.52;100.00;101860.13;6318564;28;20583;-72
2023/09/06 05:15:22;;;;;;;3.85;2.17;;;;;;;16.53;100.00;101867.97;6314567;28;20446;-73
2023/09/06 05:18:23;;;;;;;4.55;2.33;;;;;;;16.57;100.00;101866.00;6317581;28;20046;-73
2023/09/06 05:21:24;;;;;;;3.97;2.45;;;;;;;16.55;100.00;101868.75;6322793;28;20481;-75
2023/09/06 05:24:26;;;;;;;4.55;2.20;;;;;;;16.59;100.00;101872.94;6314578;28;20040;-72
2023/09/06 05:27:29;;;;;;;5.20;2.55;;;;;;;16.62;100.00;101875.41;6315749;28;20051;-73
2023/09/06 05:30:31;;;;;;;3.80;2.17;;;;;;;16.63;100.00;101882.41;6311191;28;20437;-75
2023/09/06 05:33:33;;;;;;;4.40;1.90;;;;;;;16.63;100.00;101881.56;6315391;28;20046;-75
2023/09/06 05:36:34;;;;;;;2.97;2.00;;;;;;;16.63;100.00;101889.53;6328090;28;20048;-75
2023/09/06 05:39:37;;;;;;;5.80;1.65;;;;;;;16.68;100.00;101888.31;6328033;28;20347;-73
2023/09/06 05:42:40;;;;;;;2.65;1.95;;;;;;;16.73;100.00;101888.06;6328150;28;20056;-75
2023/09/06 05:45:42;;;;;;;2.45;1.70;;;;;;;16.75;100.00;101888.78;6327442;28;20054;-74
2023/09/06 05:48:43;;;;;;;2.67;1.88;;;;;;;16.78;100.00;101887.78;6328020;28;20048;-75
2023/09/06 05:51:45;;;;;;;2.63;2.08;;;;;;;16.83;100.00;101894.50;6333574;28;20059;-75
2023/09/06 05:54:46;;;;;;;3.70;2.15;;;;;;;16.85;100.00;101891.75;6344333;28;20043;-74
2023/09/06 05:57:49;;;;;;;4.60;2.88;;;;;;;16.89;100.00;101891.47;6352817;28;20052;-75
2023/09/06 06:00:53;;;;;;;3.15;2.10;;;;;;;16.92;100.00;101890.44;6353160;28;20129;-74
2023/09/06 06:03:54;;;;;;;3.15;2.28;;;;;;;16.96;100.00;101895.44;6352759;28;20044;-75
2023/09/06 06:06:56;;;;;;;2.72;1.92;;;;;;;17.00;100.00;101896.13;6352598;28;20047;-74
2023/09/06 06:09:57;;;;;;;3.33;1.70;;;;;;;17.04;100.00;101902.09;6352631;28;20043;-75
2023/09/06 06:13:00;;;;;;;6.25;2.28;;;;;;;17.07;100.00;101905.41;6352747;28;20055;-74
2023/09/06 06:16:02;;;;;;;3.72;2.10;;;;;;;17.09;100.00;101897.34;6352120;28;20050;-74
2023/09/06 06:19:03;;;;;;;2.72;1.80;;;;;;;17.15;100.00;101911.09;6352415;28;20047;-75
2023/09/06 06:22:05;;;;;;;5.80;2.35;;;;;;;17.24;100.00;101909.66;6352539;28;20048;-75
2023/09/06 06:25:09;;;;;;;7.47;2.35;;;;;;;17.29;100.00;101912.03;6351919;28;20054;-74
2023/09/06 06:28:12;;;;;;;4.13;2.10;;;;;;;17.34;100.00;101913.44;6352242;28;20436;-75
2023/09/06 06:31:14;;;;;;;3.33;2.00;;;;;;;17.39;100.00;101910.50;6351422;28;20058;-75
2023/09/06 06:34:18;;;;;;;2.65;1.52;;;;;;;17.47;100.00;101913.53;6352078;28;20447;-75
2023/09/06 06:37:19;;;;;;;3.05;1.80;;;;;;;17.51;100.00;101909.72;6351708;28;20059;-74
2023/09/06 06:40:22;;;;;;;2.50;2.15;;;;;;;17.57;100.00;101911.13;6342172;28;20047;-75
2023/09/06 06:43:25;;;;;;;2.75;2.03;;;;;;;17.61;100.00;101917.97;6324578;28;20048;-75
2023/09/06 06:46:28;;;;;;;4.68;1.80;;;;;;;17.65;100.00;101920.31;6335266;28;20054;-75
2023/09/06 06:49:29;;;;;;;2.45;1.65;;;;;;;17.72;100.00;101919.00;6338364;28;20054;-75
2023/09/06 06:52:33;;;;;;;2.15;1.55;;;;;;;17.83;100.00;101918.31;6342746;28;20048;-75
2023/09/06 06:55:34;;;;;;;4.70;2.05;;;;;;;17.91;100.00;101918.66;6342903;28;20055;-75
2023/09/06 06:58:37;;;;;;;6.10;2.10;;;;;;;17.97;100.00;101918.25;6351449;28;20493;-75
2023/09/06 07:01:39;;;;;;;7.03;2.10;;;;;;;18.05;100.00;101916.91;6303997;28;20089;-75
2023/09/06 07:04:40;;;;;;;2.50;1.80;;;;;;;18.13;100.00;101919.94;6338942;28;20041;-74
2023/09/06 07:07:42;;;;;;;2.85;1.95;;;;;;;18.17;100.00;101914.31;6351175;28;20054;-75
2023/09/06 07:10:43;;;;;;;3.88;1.63;;;;;;;18.23;100.00;101911.22;6351290;28;20047;-75
2023/09/06 07:13:48;;;;;;;2.92;1.90;;;;;;;18.29;100.00;101909.94;6344715;28;20048;-75
2023/09/06 07:16:49;;;;;;;2.03;1.65;;;;;;;18.38;100.00;101914.66;6348998;28;20054;-73
2023/09/06 07:19:51;;;;;;;1.58;1.23;;;;;;;18.42;100.00;101915.31;6351097;28;20044;-73
2023/09/06 07:22:52;;;;;;;2.33;1.63;;;;;;;18.49;100.00;101912.13;6351035;28;20051;-74
2023/09/06 07:25:54;;;;;;;5.13;1.70;;;;;;;18.65;100.00;101916.38;6350737;28;20051;-74
2023/09/06 07:28:56;;;;;;;2.85;1.63;;;;;;;18.73;100.00;101914.94;6350893;28;20363;-73
2023/09/06 07:31:58;;;;;;;1.50;1.40;;;;;;;18.79;100.00;101920.78;6350740;28;20043;-73
2023/09/06 07:34:59;;;;;;;2.30;1.38;;;;;;;18.85;100.00;101920.34;6341921;28;20044;-73
2023/09/06 07:38:01;;;;;;;3.85;1.50;;;;;;;18.94;100.00;101928.59;6333979;28;20044;-73
2023/09/06 07:41:04;;;;;;;1.52;1.42;;;;;;;19.05;100.00;101926.97;6336816;28;20340;-73
2023/09/06 07:44:07;;;;;;;3.60;1.67;;;;;;;19.13;100.00;101932.63;6327779;28;20172;-73
2023/09/06 07:47:09;;;;;;;2.03;1.35;;;;;;;19.26;100.00;101925.47;6341097;28;20467;-73
2023/09/06 07:50:11;;;;;;;2.03;1.50;;;;;;;19.27;100.00;101924.50;6341880;28;20356;-73
2023/09/06 07:53:12;;;;;;;2.25;1.80;;;;;;;19.31;100.00;101930.47;6348798;28;20054;-73
2023/09/06 07:56:13;;;;;;;1.90;1.50;;;;;;;19.42;100.00;101933.22;6334463;28;20048;-73
2023/09/06 07:59:21;;;;;;;2.22;1.42;;;;;;;19.48;100.00;101930.97;6350474;28;20047;-73
2023/09/06 08:02:22;;;;;;;2.58;1.55;;;;;;;19.65;100.00;101929.75;6350621;28;20054;-73
2023/09/06 08:05:24;;;;;;;8.40;2.00;;;;;;;19.75;100.00;101935.28;6349707;28;20401;-73
2023/09/06 08:08:26;;;;;;;4.25;2.20;;;;;;;19.87;100.00;101939.72;6350435;28;20051;-73
2023/09/06 08:11:27;;;;;;;3.55;2.42;;;;;;;20.04;100.00;101934.97;6343173;28;20048;-73
2023/09/06 08:14:30;;;;;;;5.90;1.98;;;;;;;19.98;100.00;101945.13;6338622;28;20039;-73
2023/09/06 08:17:32;;;;;;;5.68;1.70;;;;;;;20.01;100.00;101944.88;6344823;28;20036;-73
2023/09/06 08:20:34;;;;;;;4.65;1.63;;;;;;;20.04;100.00;101937.63;6325566;28;20443;-73
2023/09/06 08:23:35;;;;;;;35.65;16.27;;;;;;;20.18;100.00;101932.09;6332953;28;20040;-73
2023/09/06 08:26:37;;;;;;;15.38;9.20;;;;;;;20.28;100.00;101938.44;6345529;28;20051;-74
2023/09/06 08:29:40;;;;;;;7.05;3.83;;;;;;;20.30;100.00;101935.66;6350382;28;20127;-74
2023/09/06 08:32:42;;;;;;;2.88;1.85;;;;;;;20.29;100.00;101937.47;6349221;28;20351;-71
2023/09/06 08:35:44;;;;;;;2.95;1.77;;;;;;;20.47;100.00;101928.09;6341232;28;20051;-73
2023/09/06 08:38:45;;;;;;;1.70;1.45;;;;;;;20.63;100.00;101929.63;6347020;28;20363;-72
2023/09/06 08:41:50;;;;;;;1.35;1.13;;;;;;;20.63;100.00;101930.47;6336109;28;20058;-71
2023/09/06 08:44:53;;;;;;;2.17;1.40;;;;;;;20.76;100.00;101925.88;6334661;28;20040;-71
2023/09/06 08:47:55;;;;;;;2.72;1.48;;;;;;;20.82;100.00;101932.56;6342404;28;20052;-71
2023/09/06 08:50:57;;;;;;;2.50;1.45;;;;;;;20.88;100.00;101934.75;6339707;28;20388;-74
2023/09/06 08:53:59;;;;;;;1.80;1.13;;;;;;;20.96;100.00;101932.34;6349744;28;20424;-74
2023/09/06 08:57:02;;;;;;;2.63;1.42;;;;;;;21.06;100.00;101939.63;6330372;28;20051;-77
2023/09/06 09:00:08;;;;;;;2.30;1.50;;;;;;;21.15;100.00;101937.06;6336673;28;20039;-72
2023/09/06 09:03:10;;;;;;;5.30;1.40;;;;;;;21.20;100.00;101929.53;6301715;28;20133;-72
2023/09/06 09:06:11;;;;;;;1.90;1.40;;;;;;;21.36;100.00;101928.38;6301079;28;20357;-73
2023/09/06 09:09:17;;;;;;;2.05;1.38;;;;;;;21.52;100.00;101926.13;6301358;28;20225;-72
2023/09/06 09:12:23;;;;;;;1.92;1.25;;;;;;;21.67;100.00;101937.44;6301897;28;20455;-76
2023/09/06 09:15:26;;;;;;;1.55;1.20;;;;;;;21.66;100.00;101933.88;6302643;28;20075;-72
2023/09/06 09:18:29;;;;;;;1.67;1.10;;;;;;;21.76;100.00;101936.69;6303402;28;20048;-72
2023/09/06 09:21:30;;;;;;;2.42;1.20;;;;;;;21.95;100.00;101939.53;6303578;28;20055;-72
2023/09/06 09:24:32;;;;;;;0.93;0.93;;;;;;;22.05;100.00;101934.28;6305695;28;20351;-72
2023/09/06 09:27:33;;;;;;;1.85;1.25;;;;;;;22.08;100.00;101942.06;6311188;28;20049;-73
2023/09/06 09:30:37;;;;;;;11.77;7.30;;;;;;;22.22;100.00;101933.75;6316450;28;20044;-72
2023/09/06 09:33:39;;;;;;;2.58;1.75;;;;;;;22.29;100.00;101934.06;6320348;28;20044;-72
2023/09/06 09:36:40;;;;;;;2.53;1.50;;;;;;;22.42;100.00;101937.44;6328100;28;20051;-72
2023/09/06 09:39:43;;;;;;;2.00;1.20;;;;;;;22.48;100.00;101936.06;6328145;28;20048;-73
2023/09/06 09:42:52;;;;;;;3.92;1.40;;;;;;;22.67;100.00;101946.91;6328432;28;20055;-73
2023/09/06 09:45:55;;;;;;;2.13;1.05;;;;;;;22.86;100.00;101935.47;6327638;28;20085;-73
2023/09/06 09:49:01;;;;;;;1.35;1.00;;;;;;;22.96;100.00;101936.38;6327865;28;20371;-72
2023/09/06 09:52:02;;;;;;;2.25;1.30;;;;;;;23.06;100.00;101932.91;6327980;28;20133;-73
2023/09/06 09:55:06;;;;;;;2.20;1.55;;;;;;;23.26;100.00;101926.66;6327443;28;20469;-73
2023/09/06 09:58:11;;;;;;;3.28;1.10;;;;;;;23.21;100.00;101931.53;6327750;28;20101;-73
2023/09/06 10:01:15;;;;;;;1.67;1.10;;;;;;;23.36;100.00;101932.03;6327743;28;20055;-73
2023/09/06 10:04:16;;;;;;;2.17;1.20;;;;;;;23.39;100.00;101929.94;6327453;28;20052;-73
2023/09/06 10:07:20;;;;;;;6.55;1.40;;;;;;;23.43;100.00;101923.28;6314558;28;20052;-73
2023/09/06 10:10:22;;;;;;;10.65;6.50;;;;;;;23.60;100.00;101926.31;6313256;28;20070;-73
2023/09/06 10:13:26;;;;;;;4.25;2.88;;;;;;;23.75;100.00;101923.13;6315252;28;20036;-73
2023/09/06 10:16:29;;;;;;;1.38;1.20;;;;;;;23.86;100.00;101924.84;6313723;28;20437;-73
2023/09/06 10:19:31;;;;;;;2.25;1.20;;;;;;;23.88;100.00;101922.84;6314056;28;20051;-73
2023/09/06 10:22:33;;;;;;;1.10;0.82;;;;;;;23.82;100.00;101922.56;6323349;28;20055;-73
2023/09/06 10:25:40;;;;;;;1.48;1.05;;;;;;;23.83;100.00;101917.06;6326634;28;20040;-73
2023/09/06 10:28:41;;;;;;;1.60;0.93;;;;;;;23.95;100.00;101924.00;6327148;28;20047;-73
2023/09/06 10:31:48;;;;;;;2.30;1.35;;;;;;;24.18;100.00;101918.34;6326789;28;20071;-73
2023/09/06 10:35:21;;;;;;;3.70;1.20;;;;;;;24.26;100.00;101927.41;6326771;28;20051;-73
2023/09/06 10:38:23;;;;;;;2.35;1.20;;;;;;;24.31;100.00;101916.22;6326833;28;20473;-73
2023/09/06 10:41:26;;;;;;;5.55;2.33;;;;;;;24.45;100.00;101917.66;6318468;28;20067;-73
2023/09/06 10:44:29;;;;;;;1.88;1.10;;;;;;;24.58;100.00;101920.03;6330191;28;20104;-73
2023/09/06 10:47:33;;;;;;;1.40;0.93;;;;;;;24.68;100.00;101920.84;6330687;28;20047;-73
2023/09/06 10:50:36;;;;;;;1.00;0.80;;;;;;;24.87;100.00;101923.50;6335545;28;20439;-73
2023/09/06 10:53:38;;;;;;;2.00;1.15;;;;;;;24.90;100.00;101922.34;6335686;28;20051;-73
2023/09/06 10:56:40;;;;;;;2.25;1.02;;;;;;;24.90;100.00;101919.66;6320011;28;20456;-73
2023/09/06 10:59:44;;;;;;;1.40;0.90;;;;;;;25.02;100.00;101919.31;6334586;28;20048;-73
2023/09/06 11:03:13;;;;;;;2.20;1.25;;;;;;;25.18;100.00;101918.72;6340855;28;20044;-73
2023/09/06 11:06:14;;;;;;;;;;;;;;;25.18;100.00;101917.88;6326946;28;20501;-75
2023/09/06 11:09:16;;;;;;;2.17;1.10;;;;;;;25.35;100.00;101918.94;6335175;28;20007;-75
2023/09/06 11:12:18;;;;;;;1.70;1.30;;;;;;;25.53;100.00;101927.91;6344396;28;20096;-75
2023/09/06 11:15:20;;;;;;;3.33;1.08;;;;;;;25.68;100.00;101918.31;6338504;28;20443;-72
2023/09/06 11:18:23;;;;;;;0.98;0.88;;;;;;;25.74;100.00;101923.06;6340730;28;20051;-72
2023/09/06 11:21:24;;;;;;;1.80;1.05;;;;;;;25.90;100.00;101914.34;6339202;28;20432;-72
2023/09/06 11:24:32;;;;;;;2.97;1.10;;;;;;;26.03;100.00;101917.50;6342353;28;20355;-72
2023/09/06 11:27:37;;;;;;;2.83;1.58;;;;;;;26.23;100.00;101914.66;6341525;28;20075;-72
2023/09/06 11:30:39;;;;;;;4.13;1.10;;;;;;;26.59;100.00;101915.47;6346580;28;20051;-74
2023/09/06 11:33:42;;;;;;;1.80;0.70;;;;;;;26.70;100.00;101911.63;6340566;28;20079;-73
2023/09/06 11:36:43;;;;;;;1.95;1.02;;;;;;;26.91;100.00;101904.00;6346812;28;20055;-76
2023/09/06 11:39:46;;;;;;;1.13;0.90;;;;;;;27.05;100.00;101903.41;6350721;28;20066;-74
2023/09/06 11:42:52;;;;;;;1.63;1.00;;;;;;;27.34;100.00;101917.56;6350717;28;20128;-73
2023/09/06 11:45:56;;;;;;;1.25;0.88;;;;;;;27.58;100.00;101914.94;6349814;28;20454;-74
2023/09/06 11:48:59;;;;;;;1.33;0.90;;;;;;;27.86;79.98;101912.84;6350512;28;20044;-73
2023/09/06 11:52:04;;;;;;;1.50;0.90;;;;;;;28.21;73.64;101908.97;6344861;28;20051;-74
2023/09/06 11:55:09;;;;;;;1.17;0.93;;;;;;;28.51;67.63;101906.59;6341422;28;20047;-74
2023/09/06 11:58:16;;;;;;;0.82;0.75;;;;;;;28.88;64.46;101899.75;6350479;28;20158;-74
2023/09/06 12:01:21;;;;;;;4.70;0.93;;;;;;;29.19;58.80;101895.25;6350148;28;20055;-74
2023/09/06 12:04:26;;;;;;;4.93;0.95;;;;;;;29.43;58.95;101898.88;6350092;28;20381;-74
2023/09/06 12:07:28;;;;;;;1.23;0.85;;;;;;;29.63;58.99;101899.31;6345561;28;20051;-74
2023/09/06 12:10:30;;;;;;;1.15;0.90;;;;;;;29.86;57.02;101894.72;6341772;28;20056;-74
2023/09/06 12:13:32;;;;;;;1.92;1.00;;;;;;;30.02;55.34;101896.47;6350216;28;20048;-74
2023/09/06 12:16:36;;;;;;;1.58;0.82;;;;;;;30.15;52.50;101894.00;6350093;28;20131;-74
2023/09/06 12:19:39;;;;;;;0.80;0.80;;;;;;;30.26;51.60;101890.88;6350042;28;20187;-74
2023/09/06 12:22:40;;;;;;;2.50;0.82;;;;;;;30.46;53.65;101883.03;6350381;28;20054;-75
2023/09/06 12:25:42;;;;;;;1.20;1.10;;;;;;;30.60;50.72;101877.81;6349764;28;20052;-74
2023/09/06 12:28:43;;;;;;;17.55;1.65;;;;;;;30.68;49.93;101878.56;6350199;28;20055;-74
2023/09/06 12:31:45;;;;;;;1.55;0.75;;;;;;;30.91;50.44;101877.66;6354941;28;20051;-74
2023/09/06 12:34:47;;;;;;;1.10;0.80;;;;;;;30.98;51.86;101865.03;6354715;28;20340;-73
2023/09/06 12:37:49;;;;;;;2.80;0.85;;;;;;;31.10;49.39;101868.94;6354855;28;20047;-75
2023/09/06 12:40:50;;;;;;;2.03;0.90;;;;;;;31.20;46.27;101860.47;6344024;28;20047;-72
2023/09/06 12:43:51;;;;;;;0.68;0.68;;;;;;;31.32;46.48;101862.53;6340190;28;20075;-72
2023/09/06 12:46:53;;;;;;;3.40;1.20;;;;;;;31.49;47.81;101862.31;6351888;28;20047;-72
2023/09/06 12:49:56;;;;;;;1.63;0.95;;;;;;;31.53;46.75;101860.91;6353551;28;20047;-73
2023/09/06 12:52:57;;;;;;;1.10;0.80;;;;;;;31.68;46.29;101850.78;6345950;28;20105;-72
2023/09/06 12:55:59;;;;;;;0.60;0.60;;;;;;;31.85;46.82;101859.56;6354282;28;20044;-72
2023/09/06 12:59:00;;;;;;;1.27;0.88;;;;;;;31.92;44.85;101862.34;6354391;28;20054;-73
2023/09/06 13:02:02;;;;;;;1.08;0.88;;;;;;;31.99;44.66;101852.38;6348785;28;20051;-72
2023/09/06 13:05:05;;;;;;;1.33;0.82;;;;;;;32.17;44.91;101850.00;6344418;28;20073;-73
2023/09/06 13:08:07;;;;;;;1.30;1.13;;;;;;;32.17;43.32;101850.00;6354480;28;20047;-72
2023/09/06 13:11:08;;;;;;;1.02;0.80;;;;;;;32.25;42.67;101852.59;6354399;28;20060;-73
2023/09/06 13:14:10;;;;;;;1.35;0.90;;;;;;;32.41;41.64;101853.34;6353863;28;20065;-73
2023/09/06 13:17:11;;;;;;;1.50;0.80;;;;;;;32.48;42.00;101846.06;6353682;28;20044;-73
2023/09/06 13:20:14;;;;;;;1.33;0.80;;;;;;;32.65;41.88;101843.84;6354064;28;20051;-73
2023/09/06 13:23:15;;;;;;;2.33;0.93;;;;;;;32.83;39.79;101847.69;6354098;28;20047;-73
2023/09/06 13:26:16;;;;;;;1.23;0.80;;;;;;;33.02;40.19;101848.03;6353429;28;20039;-73
2023/09/06 13:29:18;;;;;;;1.88;0.90;;;;;;;32.93;40.63;101844.66;6353936;28;20048;-73
2023/09/06 13:32:20;;;;;;;0.63;0.63;;;;;;;32.86;39.08;101840.19;6353673;28;20058;-75
2023/09/06 13:35:22;;;;;;;1.30;0.88;;;;;;;32.92;38.15;101840.25;6353390;28;20047;-73
2023/09/06 13:38:24;;;;;;;1.67;0.80;;;;;;;32.96;39.15;101829.78;6353666;28;20059;-72
2023/09/06 13:41:25;;;;;;;5.60;1.27;;;;;;;33.29;39.65;101843.50;6353146;28;20047;-75
2023/09/06 13:44:30;;;;;;;0.95;0.82;;;;;;;33.50;39.45;101829.75;6353048;28;20051;-75
2023/09/06 13:47:32;;;;;;;0.55;0.55;;;;;;;33.28;38.90;101830.94;6353039;28;20309;-73
2023/09/06 13:50:34;;;;;;;1.58;1.10;;;;;;;33.39;39.12;101830.34;6353335;28;20043;-75
2023/09/06 13:53:36;;;;;;;1.92;0.80;;;;;;;33.46;39.58;101831.22;6352109;28;20048;-72
2023/09/06 13:56:37;;;;;;;1.60;0.70;;;;;;;33.50;39.16;101827.03;6310345;28;20105;-72
2023/09/06 13:59:39;;;;;;;3.35;0.98;;;;;;;33.52;38.62;101824.09;6302377;28;20052;-71
2023/09/06 14:02:41;;;;;;;1.52;0.80;;;;;;;33.71;38.62;101819.72;6305151;28;20040;-72